createdAt,value
2024-01-24T00:01:12.923Z,54.65
2024-01-24T00:03:41.508Z,54.57
2024-01-24T00:06:09.918Z,54.55
2024-01-24T00:08:38.221Z,54.63
2024-01-24T00:11:07.620Z,54.69
2024-01-24T00:13:36.073Z,54.85
2024-01-24T00:16:05.512Z,54.77
2024-01-24T00:18:35.371Z,54.75
2024-01-24T00:21:04.676Z,54.80
2024-01-24T00:23:33.057Z,54.85
2024-01-24T00:26:01.411Z,54.85
2024-01-24T00:28:31.037Z,54.87
2024-01-24T00:30:59.446Z,54.95
2024-01-24T00:33:30.468Z,54.95
2024-01-24T00:36:00.287Z,54.96
2024-01-24T00:38:28.738Z,55.05
2024-01-24T00:40:57.420Z,54.99
2024-01-24T00:43:27.290Z,54.89
2024-01-24T00:45:56.195Z,54.96
2024-01-24T00:48:24.704Z,55.09
2024-01-24T00:50:54.813Z,55.12
2024-01-24T00:53:24.961Z,55.13
2024-01-24T00:55:53.310Z,55.25
2024-01-24T00:58:21.601Z,55.41
2024-01-24T01:00:50.156Z,55.41
2024-01-24T01:03:18.698Z,55.50
2024-01-24T01:05:47.497Z,55.56
2024-01-24T01:08:15.980Z,55.49
2024-01-24T01:10:45.676Z,55.74
2024-01-24T01:13:14.086Z,55.58
2024-01-24T01:15:43.181Z,55.80
2024-01-24T01:18:12.341Z,55.71
2024-01-24T01:20:40.661Z,55.65
2024-01-24T01:23:11.506Z,55.86
2024-01-24T01:25:39.822Z,55.88
2024-01-24T01:28:09.652Z,55.87
2024-01-24T01:30:37.972Z,55.88
2024-01-24T01:33:07.180Z,55.87
2024-01-24T01:35:36.851Z,56.01
2024-01-24T01:38:05.710Z,56.13
2024-01-24T01:40:34.047Z,56.06
2024-01-24T01:43:02.555Z,56.02
2024-01-24T01:45:32.454Z,55.91
2024-01-24T01:48:01.021Z,55.92
2024-01-24T01:50:29.394Z,55.98
2024-01-24T01:52:57.889Z,55.84
2024-01-24T01:55:26.393Z,55.80
2024-01-24T01:57:56.688Z,55.81
2024-01-24T02:00:25.134Z,55.88
2024-01-24T02:02:57.565Z,55.89
2024-01-24T02:05:26.268Z,55.84
2024-01-24T02:07:54.730Z,56.00
2024-01-24T02:10:23.303Z,55.82
2024-01-24T02:12:51.764Z,55.84
2024-01-24T02:15:20.243Z,55.75
2024-01-24T02:17:48.619Z,55.81
2024-01-24T02:20:19.634Z,55.71
2024-01-24T02:22:47.987Z,55.61
2024-01-24T02:25:17.739Z,55.57
2024-01-24T02:27:47.847Z,55.50
2024-01-24T02:30:17.237Z,55.25
2024-01-24T02:32:48.637Z,55.48
2024-01-24T02:35:18.235Z,55.40
2024-01-24T02:37:46.639Z,55.39
2024-01-24T02:40:15.142Z,55.28
2024-01-24T02:42:44.956Z,55.44
2024-01-24T02:45:13.494Z,55.44
2024-01-24T02:47:42.155Z,55.41
2024-01-24T02:50:14.795Z,55.23
2024-01-24T02:52:43.451Z,55.36
2024-01-24T02:55:16.876Z,55.33
2024-01-24T02:57:49.022Z,55.20
2024-01-24T03:00:18.764Z,55.20
2024-01-24T03:02:47.410Z,55.04
2024-01-24T03:05:15.800Z,55.14
2024-01-24T03:07:44.226Z,55.16
2024-01-24T03:10:12.975Z,55.25
2024-01-24T03:12:41.455Z,55.31
2024-01-24T03:15:11.909Z,55.21
2024-01-24T03:17:40.640Z,55.09
2024-01-24T03:20:11.870Z,55.17
2024-01-24T03:22:40.279Z,55.24
2024-01-24T03:25:09.928Z,55.11
2024-01-24T03:27:40.453Z,54.98
2024-01-24T03:30:12.634Z,55.03
2024-01-24T03:32:41.083Z,55.05
2024-01-24T03:35:12.667Z,55.18
2024-01-24T03:37:41.015Z,54.93
2024-01-24T03:40:10.993Z,54.94
2024-01-24T03:42:39.506Z,55.08
2024-01-24T03:45:11.144Z,55.03
2024-01-24T03:47:42.230Z,55.05
2024-01-24T03:50:11.487Z,54.97
2024-01-24T03:52:39.764Z,55.12
2024-01-24T03:55:08.987Z,54.95
2024-01-24T03:57:37.534Z,55.03
2024-01-24T04:00:08.276Z,54.93
2024-01-24T04:02:38.099Z,54.93
2024-01-24T04:05:07.637Z,54.97
2024-01-24T04:07:36.158Z,54.80
2024-01-24T04:10:05.776Z,54.83
2024-01-24T04:12:34.172Z,54.81
2024-01-24T04:15:02.595Z,54.77
2024-01-24T04:17:31.764Z,54.78
2024-01-24T04:20:01.570Z,54.72
2024-01-24T04:22:29.895Z,54.79
2024-01-24T04:24:59.687Z,54.73
2024-01-24T04:27:28.747Z,54.52
2024-01-24T04:29:57.294Z,54.57
2024-01-24T04:32:25.792Z,54.66
2024-01-24T04:34:57.877Z,54.73
2024-01-24T04:37:28.077Z,54.56
2024-01-24T04:39:56.416Z,54.64
2024-01-24T04:42:24.745Z,54.53
2024-01-24T04:44:53.266Z,54.57
2024-01-24T04:47:22.552Z,54.57
2024-01-24T04:49:50.954Z,54.58
2024-01-24T04:52:19.399Z,54.63
2024-01-24T04:54:49.267Z,54.59
2024-01-24T04:57:17.702Z,54.64
2024-01-24T04:59:52.686Z,54.64
2024-01-24T05:02:24.714Z,54.61
2024-01-24T05:04:53.202Z,54.47
2024-01-24T05:07:21.746Z,54.47
2024-01-24T05:09:51.899Z,54.41
2024-01-24T05:12:20.322Z,54.44
2024-01-24T05:14:48.693Z,54.33
2024-01-24T05:17:17.113Z,54.30
2024-01-24T05:19:45.546Z,54.25
2024-01-24T05:22:15.298Z,54.17
2024-01-24T05:24:46.957Z,54.12
2024-01-24T05:27:16.937Z,53.82
2024-01-24T05:29:50.565Z,54.24
2024-01-24T05:32:18.965Z,54.13
2024-01-24T05:34:47.762Z,54.27
2024-01-24T05:37:16.417Z,54.23
2024-01-24T05:39:48.598Z,54.24
2024-01-24T05:42:19.191Z,54.21
2024-01-24T05:44:47.794Z,54.11
2024-01-24T05:47:16.755Z,54.17
2024-01-24T05:49:48.108Z,54.19
2024-01-24T05:52:16.658Z,53.98
2024-01-24T05:54:45.320Z,54.10
2024-01-24T05:57:13.718Z,54.05
2024-01-24T05:59:43.555Z,54.15
2024-01-24T06:02:12.142Z,54.05
2024-01-24T06:04:46.324Z,53.95
2024-01-24T06:07:15.506Z,54.41
2024-01-24T06:09:43.943Z,54.03
2024-01-24T06:12:12.317Z,54.11
2024-01-24T06:14:42.145Z,54.32
2024-01-24T06:17:10.536Z,54.15
2024-01-24T06:19:38.921Z,54.14
2024-01-24T06:22:10.237Z,54.21
2024-01-24T06:24:39.655Z,54.20
2024-01-24T06:27:10.888Z,54.20
2024-01-24T06:30:16.335Z,54.26
2024-01-24T06:32:30.352Z,54.37
2024-01-24T06:34:59.345Z,54.27
2024-01-24T06:37:27.780Z,54.26
2024-01-24T06:39:56.216Z,54.40
2024-01-24T06:42:24.839Z,54.29
2024-01-24T06:44:53.222Z,54.23
2024-01-24T06:47:22.033Z,54.34
2024-01-24T06:49:52.621Z,54.36
2024-01-24T06:52:20.981Z,54.51
2024-01-24T06:54:49.594Z,54.58
2024-01-24T06:57:18.944Z,54.56
2024-01-24T06:59:47.878Z,54.62
2024-01-24T07:02:16.334Z,54.73
2024-01-24T07:04:45.075Z,54.75
2024-01-24T07:07:15.814Z,54.67
2024-01-24T07:09:44.384Z,54.63
2024-01-24T07:12:14.861Z,54.72
2024-01-24T07:14:43.289Z,54.72
2024-01-24T07:17:12.379Z,54.88
2024-01-24T07:19:41.065Z,54.90
2024-01-24T07:22:09.701Z,54.99
2024-01-24T07:24:39.705Z,54.81
2024-01-24T07:27:08.190Z,54.85
2024-01-24T07:29:36.656Z,54.99
2024-01-24T07:32:05.955Z,55.17
2024-01-24T07:34:34.539Z,55.19
2024-01-24T07:37:03.261Z,55.31
2024-01-24T07:39:31.809Z,55.52
2024-01-24T07:42:01.800Z,55.83
2024-01-24T07:44:30.234Z,56.22
2024-01-24T07:47:02.852Z,56.65
2024-01-24T07:49:33.995Z,56.73
2024-01-24T07:52:04.295Z,57.17
2024-01-24T07:54:32.756Z,57.38
2024-01-24T07:57:05.199Z,57.66
2024-01-24T07:59:33.918Z,57.71
2024-01-24T08:02:03.888Z,57.85
2024-01-24T08:04:33.395Z,57.99
2024-01-24T08:07:02.413Z,58.10
2024-01-24T08:09:31.230Z,58.20
2024-01-24T08:11:59.856Z,58.31
2024-01-24T08:14:30.068Z,58.46
2024-01-24T08:17:03.538Z,58.49
2024-01-24T08:19:32.134Z,58.48
2024-01-24T08:22:01.477Z,58.91
2024-01-24T08:24:30.058Z,59.30
2024-01-24T08:26:58.679Z,59.86
2024-01-24T08:29:36.062Z,60.54
2024-01-24T08:32:07.940Z,61.72
2024-01-24T08:34:38.583Z,61.85
2024-01-24T08:37:07.920Z,62.00
2024-01-24T08:39:36.379Z,62.12
2024-01-24T08:42:05.792Z,62.23
2024-01-24T08:44:34.358Z,62.23
2024-01-24T08:47:03.081Z,61.98
2024-01-24T08:49:33.756Z,61.79
2024-01-24T08:52:02.378Z,61.56
2024-01-24T08:54:31.252Z,61.56
2024-01-24T08:56:59.629Z,61.40
2024-01-24T08:59:28.008Z,61.54
2024-01-24T09:01:58.329Z,61.18
2024-01-24T09:04:27.419Z,61.02
2024-01-24T09:07:00.384Z,60.77
2024-01-24T09:09:31.962Z,60.73
2024-01-24T09:12:01.282Z,60.58
2024-01-24T09:14:30.411Z,60.75
2024-01-24T09:16:59.093Z,60.37
2024-01-24T09:19:27.575Z,60.01
2024-01-24T09:21:57.164Z,60.05
2024-01-24T09:24:27.493Z,59.81
2024-01-24T09:26:56.399Z,59.62
2024-01-24T09:29:24.903Z,59.63
2024-01-24T09:31:53.484Z,59.41
2024-01-24T09:34:22.373Z,59.30
2024-01-24T09:36:50.951Z,59.21
2024-01-24T09:39:19.949Z,59.06
2024-01-24T09:41:53.995Z,58.75
2024-01-24T09:44:25.308Z,58.76
2024-01-24T09:46:55.276Z,58.49
2024-01-24T09:49:24.154Z,58.42
2024-01-24T09:51:55.159Z,58.33
2024-01-24T09:54:25.053Z,57.97
2024-01-24T09:56:55.617Z,57.96
2024-01-24T09:59:24.046Z,57.70
2024-01-24T10:01:52.751Z,57.57
2024-01-24T10:04:21.383Z,57.47
2024-01-24T10:06:50.995Z,57.10
2024-01-24T10:09:20.628Z,57.09
2024-01-24T10:11:49.265Z,56.96
2024-01-24T10:14:21.111Z,56.99
2024-01-24T10:16:49.550Z,56.73
2024-01-24T10:19:18.035Z,56.85
2024-01-24T10:21:46.703Z,57.09
2024-01-24T10:24:15.182Z,57.23
2024-01-24T10:26:46.687Z,57.23
2024-01-24T10:29:15.411Z,57.04
2024-01-24T10:31:46.172Z,56.52
2024-01-24T10:34:14.795Z,56.00
2024-01-24T10:36:46.656Z,55.18
2024-01-24T10:39:19.073Z,54.78
2024-01-24T10:41:56.176Z,53.68
2024-01-24T10:44:27.766Z,53.77
2024-01-24T10:46:58.166Z,54.05
2024-01-24T10:49:26.882Z,53.44
2024-01-24T10:51:57.312Z,52.53
2024-01-24T10:54:26.874Z,51.82
2024-01-24T10:56:58.058Z,51.96
2024-01-24T10:59:29.764Z,52.44
2024-01-24T11:02:00.243Z,52.53
2024-01-24T11:04:30.459Z,52.38
2024-01-24T11:07:04.076Z,51.97
2024-01-24T11:09:38.314Z,50.64
2024-01-24T11:12:08.061Z,50.54
2024-01-24T11:14:37.734Z,50.29
2024-01-24T11:17:07.953Z,50.54
2024-01-24T11:19:36.652Z,49.63
2024-01-24T11:22:17.172Z,50.01
2024-01-24T11:24:55.436Z,50.23
2024-01-24T11:27:31.622Z,50.05
2024-01-24T11:30:03.341Z,50.09
2024-01-24T11:33:02.368Z,50.37
2024-01-24T11:35:37.213Z,50.24
2024-01-24T11:38:31.521Z,50.24
2024-01-24T11:41:04.908Z,50.60
2024-01-24T11:43:37.660Z,50.94
2024-01-24T11:46:10.363Z,50.86
2024-01-24T11:48:41.855Z,50.92
2024-01-24T11:51:12.557Z,51.01
2024-01-24T11:53:41.006Z,51.14
2024-01-24T11:56:15.554Z,51.09
2024-01-24T11:58:44.216Z,51.25
2024-01-24T12:01:13.914Z,51.36
2024-01-24T12:03:51.620Z,51.22
2024-01-24T12:06:20.769Z,51.33
2024-01-24T12:08:50.443Z,51.04
2024-01-24T12:11:20.695Z,51.21
2024-01-24T12:13:49.387Z,51.10
2024-01-24T12:16:18.034Z,51.38
2024-01-24T12:18:46.719Z,51.00
2024-01-24T12:21:17.822Z,51.05
2024-01-24T12:23:48.934Z,51.25
2024-01-24T12:26:18.203Z,51.45
2024-01-24T12:28:48.807Z,51.45
2024-01-24T12:31:18.606Z,51.25
2024-01-24T12:33:47.396Z,51.68
2024-01-24T12:36:18.226Z,51.35
2024-01-24T12:38:46.751Z,51.68
2024-01-24T12:41:15.181Z,50.84
2024-01-24T12:43:43.800Z,51.20
2024-01-24T12:46:14.159Z,50.65
2024-01-24T12:48:42.987Z,50.65
2024-01-24T12:51:11.785Z,50.95
2024-01-24T12:53:41.638Z,51.02
2024-01-24T12:56:10.677Z,51.05
2024-01-24T12:58:39.257Z,51.11
2024-01-24T13:01:09.074Z,50.36
2024-01-24T13:03:37.614Z,50.43
2024-01-24T13:06:06.802Z,50.17
2024-01-24T13:08:35.643Z,49.80
2024-01-24T13:11:05.837Z,49.23
2024-01-24T13:13:34.305Z,49.13
2024-01-24T13:16:04.206Z,49.20
2024-01-24T13:18:32.859Z,49.07
2024-01-24T13:21:01.442Z,49.08
2024-01-24T13:23:29.969Z,48.89
2024-01-24T13:25:59.264Z,48.59
2024-01-24T13:28:29.103Z,48.50
2024-01-24T13:30:57.786Z,48.30
2024-01-24T13:33:26.394Z,48.29
2024-01-24T13:35:55.031Z,48.65
2024-01-24T13:38:24.286Z,48.70
2024-01-24T13:40:52.934Z,49.11
2024-01-24T13:43:24.035Z,49.67
2024-01-24T13:46:07.437Z,50.60
2024-01-24T13:48:35.946Z,50.98
2024-01-24T13:51:04.881Z,51.27
2024-01-24T13:53:33.350Z,51.42
2024-01-24T13:56:04.485Z,52.08
2024-01-24T13:58:33.127Z,52.02
2024-01-24T14:01:03.658Z,52.05
2024-01-24T14:03:32.488Z,52.21
2024-01-24T14:06:01.173Z,52.26
2024-01-24T14:08:32.497Z,52.93
2024-01-24T14:11:01.178Z,53.06
2024-01-24T14:13:29.989Z,53.19
2024-01-24T14:15:59.109Z,54.05
2024-01-24T14:18:29.038Z,53.70
2024-01-24T14:20:57.496Z,53.63
2024-01-24T14:23:26.034Z,53.64
2024-01-24T14:25:54.513Z,53.63
2024-01-24T14:28:22.943Z,53.53
2024-01-24T14:30:51.376Z,53.84
2024-01-24T14:33:27.333Z,53.95
2024-01-24T14:36:03.843Z,53.93
2024-01-24T14:38:32.331Z,53.99
2024-01-24T14:41:00.746Z,53.94
2024-01-24T14:43:32.260Z,53.92
2024-01-24T14:46:00.895Z,53.73
2024-01-24T14:48:29.941Z,53.74
2024-01-24T14:50:58.670Z,53.58
2024-01-24T14:53:28.531Z,53.47
2024-01-24T14:55:56.972Z,53.41
2024-01-24T14:58:25.628Z,53.23
2024-01-24T15:00:54.334Z,53.16
2024-01-24T15:03:22.850Z,53.13
2024-01-24T15:05:51.321Z,53.03
2024-01-24T15:08:20.824Z,52.88
2024-01-24T15:10:52.509Z,52.97
2024-01-24T15:13:23.656Z,52.94
2024-01-24T15:15:52.252Z,52.69
2024-01-24T15:18:21.544Z,52.61
2024-01-24T15:20:59.030Z,52.55
2024-01-24T15:23:35.868Z,52.47
2024-01-24T15:26:06.065Z,52.47
2024-01-24T15:28:35.887Z,52.34
2024-01-24T15:31:06.530Z,52.18
2024-01-24T15:33:35.355Z,52.16
2024-01-24T15:36:04.171Z,52.10
2024-01-24T15:38:32.684Z,51.91
2024-01-24T15:41:01.440Z,51.95
2024-01-24T15:43:31.421Z,51.84
2024-01-24T15:46:00.030Z,51.73
2024-01-24T15:48:28.622Z,51.45
2024-01-24T15:50:57.338Z,51.43
2024-01-24T15:53:25.966Z,51.34
2024-01-24T15:55:55.085Z,51.08
2024-01-24T15:58:23.587Z,51.13
2024-01-24T16:00:53.892Z,50.96
2024-01-24T16:03:27.103Z,50.84
2024-01-24T16:05:55.635Z,50.81
2024-01-24T16:08:24.555Z,50.74
2024-01-24T16:10:53.215Z,50.44
2024-01-24T16:13:22.479Z,50.66
2024-01-24T16:15:53.338Z,50.68
2024-01-24T16:18:21.973Z,50.86
2024-01-24T16:20:50.486Z,50.68
2024-01-24T16:23:19.452Z,50.69
2024-01-24T16:25:47.891Z,50.80
2024-01-24T16:28:16.535Z,50.75
2024-01-24T16:30:45.233Z,50.71
2024-01-24T16:33:18.793Z,50.79
2024-01-24T16:35:48.061Z,50.82
2024-01-24T16:38:16.524Z,50.65
2024-01-24T16:40:45.076Z,50.79
2024-01-24T16:43:13.785Z,50.71
2024-01-24T16:45:42.372Z,50.18
2024-01-24T16:48:10.929Z,50.01
2024-01-24T16:50:41.326Z,49.63
2024-01-24T16:53:12.898Z,49.17
2024-01-24T16:55:41.421Z,48.13
2024-01-24T16:58:10.633Z,47.54
2024-01-24T17:00:39.555Z,47.57
2024-01-24T17:03:08.168Z,47.29
2024-01-24T17:05:36.637Z,47.17
2024-01-24T17:08:07.893Z,46.92
2024-01-24T17:10:36.329Z,47.11
2024-01-24T17:13:05.789Z,47.04
2024-01-24T17:15:34.455Z,46.92
2024-01-24T17:18:05.188Z,46.85
2024-01-24T17:20:34.131Z,46.94
2024-01-24T17:23:02.616Z,46.73
2024-01-24T17:25:32.495Z,46.79
2024-01-24T17:28:01.218Z,46.58
2024-01-24T17:30:29.953Z,46.85
2024-01-24T17:32:59.499Z,46.73
2024-01-24T17:35:28.024Z,46.81
2024-01-24T17:37:56.466Z,47.00
2024-01-24T17:40:25.251Z,46.86
2024-01-24T17:42:55.258Z,46.69
2024-01-24T17:45:23.829Z,46.76
2024-01-24T17:47:52.644Z,46.60
2024-01-24T17:50:21.789Z,46.51
2024-01-24T17:52:50.522Z,46.60
2024-01-24T17:55:21.604Z,46.40
2024-01-24T17:57:50.319Z,46.56
2024-01-24T18:00:21.873Z,46.39
2024-01-24T18:02:50.455Z,46.22
2024-01-24T18:05:19.505Z,46.11
2024-01-24T18:07:48.379Z,46.21
2024-01-24T18:10:17.538Z,46.25
2024-01-24T18:12:46.035Z,45.73
2024-01-24T18:15:14.706Z,45.97
2024-01-24T18:17:44.675Z,46.12
2024-01-24T18:20:13.464Z,46.09
2024-01-24T18:22:43.108Z,46.15
2024-01-24T18:25:11.921Z,45.83
2024-01-24T18:27:40.573Z,45.94
2024-01-24T18:30:10.807Z,46.08
2024-01-24T18:32:39.417Z,46.08
2024-01-24T18:35:10.197Z,46.16
2024-01-24T18:37:42.208Z,45.98
2024-01-24T18:40:12.378Z,46.23
2024-01-24T18:42:41.427Z,46.18
2024-01-24T18:45:13.039Z,46.32
2024-01-24T18:47:42.135Z,46.34
2024-01-24T18:50:12.554Z,46.51
2024-01-24T18:52:43.145Z,46.65
2024-01-24T18:55:13.750Z,46.68
2024-01-24T18:57:42.648Z,46.80
2024-01-24T19:00:12.650Z,46.92
2024-01-24T19:02:41.393Z,47.21
2024-01-24T19:05:19.326Z,47.29
2024-01-24T19:07:52.495Z,47.33
2024-01-24T19:10:21.001Z,47.35
2024-01-24T19:12:51.070Z,47.42
2024-01-24T19:15:21.033Z,47.49
2024-01-24T19:17:50.614Z,47.42
2024-01-24T19:20:20.799Z,47.64
2024-01-24T19:22:49.386Z,47.62
2024-01-24T19:25:17.906Z,47.62
2024-01-24T19:27:46.898Z,47.58
2024-01-24T19:30:16.149Z,47.56
2024-01-24T19:32:44.715Z,47.75
2024-01-24T19:35:13.264Z,47.86
2024-01-24T19:37:43.561Z,47.86
2024-01-24T19:40:13.736Z,47.96
2024-01-24T19:42:42.645Z,47.83
2024-01-24T19:45:12.676Z,47.91
2024-01-24T19:47:41.321Z,47.85
2024-01-24T19:50:11.847Z,48.01
2024-01-24T19:52:40.754Z,47.92
2024-01-24T19:55:11.671Z,48.11
2024-01-24T19:57:41.796Z,48.07
2024-01-24T20:00:13.685Z,47.99
2024-01-24T20:02:42.117Z,47.95
2024-01-24T20:05:10.851Z,47.94
2024-01-24T20:07:39.766Z,48.14
2024-01-24T20:10:11.211Z,48.09
2024-01-24T20:12:40.049Z,48.02
2024-01-24T20:15:10.818Z,47.90
2024-01-24T20:17:46.156Z,47.92
2024-01-24T20:20:16.110Z,47.98
2024-01-24T20:22:44.796Z,47.89
2024-01-24T20:25:14.712Z,47.84
2024-01-24T20:27:43.826Z,47.81
2024-01-24T20:30:13.583Z,48.04
2024-01-24T20:32:45.706Z,47.88
2024-01-24T20:35:25.284Z,47.89
2024-01-24T20:37:53.876Z,47.97
2024-01-24T20:40:23.726Z,47.84
2024-01-24T20:42:52.349Z,47.77
2024-01-24T20:45:20.909Z,47.90
2024-01-24T20:47:52.915Z,47.91
2024-01-24T20:50:26.271Z,47.86
2024-01-24T20:52:54.913Z,47.67
2024-01-24T20:55:24.995Z,47.84
2024-01-24T20:57:53.678Z,47.54
2024-01-24T21:00:22.625Z,47.68
2024-01-24T21:02:53.150Z,47.59
2024-01-24T21:05:22.836Z,47.56
2024-01-24T21:07:51.670Z,47.52
2024-01-24T21:10:22.144Z,47.45
2024-01-24T21:12:52.917Z,47.43
2024-01-24T21:15:21.346Z,47.31
2024-01-24T21:17:51.535Z,47.27
2024-01-24T21:20:20.253Z,47.30
2024-01-24T21:22:50.328Z,46.88
2024-01-24T21:25:19.162Z,47.23
2024-01-24T21:27:48.889Z,47.21
2024-01-24T21:30:19.595Z,47.14
2024-01-24T21:32:48.566Z,47.04
2024-01-24T21:35:16.880Z,46.92
2024-01-24T21:37:45.485Z,46.73
2024-01-24T21:40:14.915Z,46.91
2024-01-24T21:42:43.822Z,46.97
2024-01-24T21:45:12.804Z,47.04
2024-01-24T21:47:42.755Z,46.91
2024-01-24T21:50:12.841Z,46.98
2024-01-24T21:52:41.230Z,47.07
2024-01-24T21:55:10.912Z,47.17
2024-01-24T21:57:39.529Z,47.25
2024-01-24T22:00:09.587Z,47.18
2024-01-24T22:02:38.136Z,47.35
2024-01-24T22:05:08.635Z,47.22
2024-01-24T22:07:37.091Z,47.42
2024-01-24T22:10:06.456Z,47.38
2024-01-24T22:12:34.978Z,47.37
2024-01-24T22:15:04.013Z,47.41
2024-01-24T22:17:32.675Z,47.50
2024-01-24T22:20:01.580Z,47.44
2024-01-24T22:22:31.529Z,47.36
2024-01-24T22:24:59.910Z,47.43
2024-01-24T22:27:28.442Z,47.55
2024-01-24T22:30:05.103Z,47.43
2024-01-24T22:32:33.779Z,47.35
2024-01-24T22:35:03.188Z,47.48
2024-01-24T22:37:33.719Z,47.44
2024-01-24T22:40:02.518Z,47.21
2024-01-24T22:42:30.959Z,47.32
2024-01-24T22:45:00.060Z,47.39
2024-01-24T22:47:28.652Z,47.42
2024-01-24T22:49:57.265Z,47.47
2024-01-24T22:52:25.773Z,47.31
2024-01-24T22:54:55.646Z,47.51
2024-01-24T22:57:24.309Z,47.58
2024-01-24T22:59:52.654Z,47.46
2024-01-24T23:02:21.652Z,47.63
2024-01-24T23:04:50.806Z,47.69
2024-01-24T23:07:19.358Z,47.79
2024-01-24T23:09:47.869Z,47.66
2024-01-24T23:12:20.912Z,47.72
2024-01-24T23:14:49.295Z,47.78
2024-01-24T23:17:17.655Z,47.99
2024-01-24T23:19:46.212Z,48.01
2024-01-24T23:22:15.436Z,48.06
2024-01-24T23:24:44.251Z,48.25
2024-01-24T23:27:12.717Z,48.28
2024-01-24T23:29:42.537Z,48.44
2024-01-24T23:32:12.393Z,48.42
2024-01-24T23:34:40.900Z,48.66
2024-01-24T23:37:09.466Z,48.63
2024-01-24T23:39:38.157Z,48.76
2024-01-24T23:42:06.768Z,48.63
2024-01-24T23:44:36.098Z,48.82
2024-01-24T23:47:06.571Z,48.86
2024-01-24T23:49:35.117Z,48.89
2024-01-24T23:52:03.960Z,48.72
2024-01-24T23:54:32.628Z,48.77
2024-01-24T23:57:01.006Z,48.71
2024-01-24T23:59:29.437Z,48.80
